createdAt,value
2019-01-23T00:01:02.994Z,52.55
2019-01-23T00:01:51.447Z,52.93
2019-01-23T00:02:37.496Z,55.23
2019-01-23T00:03:23.499Z,56.10
2019-01-23T00:04:09.615Z,57.75
2019-01-23T00:04:55.834Z,51.75
2019-01-23T00:05:41.682Z,53.90
2019-01-23T00:06:28.114Z,55.30
2019-01-23T00:07:13.962Z,51.08
2019-01-23T00:08:00.398Z,56.37
2019-01-23T00:08:46.516Z,55.43
2019-01-23T00:09:32.516Z,51.95
2019-01-23T00:10:18.515Z,54.55
2019-01-23T00:11:04.698Z,53.00
2019-01-23T00:11:51.516Z,55.15
2019-01-23T00:12:37.856Z,49.80
2019-01-23T00:13:24.399Z,54.90
2019-01-23T00:14:10.934Z,50.00
2019-01-23T00:14:57.125Z,52.93
2019-01-23T00:15:43.387Z,52.23
2019-01-23T00:16:29.624Z,52.48
2019-01-23T00:17:15.996Z,51.83
2019-01-23T00:18:02.326Z,54.03
2019-01-23T00:18:49.048Z,50.85
2019-01-23T00:19:35.379Z,53.20
2019-01-23T00:20:21.428Z,53.02
2019-01-23T00:21:08.623Z,50.35
2019-01-23T00:21:54.744Z,55.92
2019-01-23T00:22:42.186Z,51.95
2019-01-23T00:23:28.574Z,55.00
2019-01-23T00:24:14.973Z,52.80
2019-01-23T00:25:01.436Z,57.13
2019-01-23T00:25:48.824Z,51.20
2019-01-23T00:26:35.115Z,50.70
2019-01-23T00:27:21.367Z,53.30
2019-01-23T00:28:07.904Z,54.93
2019-01-23T00:28:54.215Z,52.93
2019-01-23T00:29:40.119Z,52.98
2019-01-23T00:30:27.742Z,53.73
2019-01-23T00:31:14.042Z,51.13
2019-01-23T00:32:00.096Z,49.53
2019-01-23T00:32:46.180Z,56.73
2019-01-23T00:33:32.548Z,52.62
2019-01-23T00:34:18.605Z,51.23
2019-01-23T00:35:05.829Z,52.25
2019-01-23T00:35:52.044Z,52.15
2019-01-23T00:36:38.462Z,49.77
2019-01-23T00:37:24.441Z,52.67
2019-01-23T00:38:10.516Z,56.00
2019-01-23T00:38:56.743Z,52.75
2019-01-23T00:39:44.016Z,52.65
2019-01-23T00:40:30.547Z,49.93
2019-01-23T00:41:17.382Z,52.20
2019-01-23T00:42:04.081Z,51.63
2019-01-23T00:42:50.516Z,51.63
2019-01-23T00:43:37.092Z,52.85
2019-01-23T00:44:23.363Z,54.48
2019-01-23T00:45:10.434Z,53.28
2019-01-23T00:45:56.908Z,53.83
2019-01-23T00:46:43.036Z,53.40
2019-01-23T00:47:29.574Z,53.35
2019-01-23T00:48:16.002Z,52.70
2019-01-23T00:49:01.874Z,54.95
2019-01-23T00:49:47.796Z,52.05
2019-01-23T00:50:34.895Z,51.90
2019-01-23T00:51:21.233Z,47.75
2019-01-23T00:52:07.220Z,49.27
2019-01-23T00:52:53.192Z,50.60
2019-01-23T00:53:39.506Z,54.35
2019-01-23T00:54:25.455Z,51.85
2019-01-23T00:55:12.687Z,50.73
2019-01-23T00:55:58.772Z,52.73
2019-01-23T00:56:44.780Z,51.60
2019-01-23T00:57:31.048Z,53.17
2019-01-23T00:58:18.132Z,54.13
2019-01-23T00:59:04.458Z,51.70
2019-01-23T00:59:50.500Z,50.58
2019-01-23T01:00:36.915Z,54.60
2019-01-23T01:01:22.940Z,51.55
2019-01-23T01:02:09.497Z,51.05
2019-01-23T01:02:55.587Z,54.15
2019-01-23T01:03:42.223Z,55.23
2019-01-23T01:04:28.296Z,50.50
2019-01-23T01:05:15.052Z,54.30
2019-01-23T01:06:01.474Z,50.43
2019-01-23T01:06:47.678Z,48.20
2019-01-23T01:07:34.064Z,49.53
2019-01-23T01:08:20.181Z,52.35
2019-01-23T01:09:09.185Z,53.92
2019-01-23T01:09:55.407Z,56.23
2019-01-23T01:10:42.463Z,53.52
2019-01-23T01:11:29.030Z,54.80
2019-01-23T01:12:15.741Z,52.38
2019-01-23T01:13:02.361Z,53.78
2019-01-23T01:13:48.431Z,58.33
2019-01-23T01:14:35.476Z,52.83
2019-01-23T01:15:23.146Z,56.13
2019-01-23T01:16:09.766Z,60.10
2019-01-23T01:16:57.035Z,64.58
2019-01-23T01:17:43.427Z,64.50
2019-01-23T01:18:29.603Z,62.95
2019-01-23T01:19:15.589Z,59.53
2019-01-23T01:20:01.581Z,62.83
2019-01-23T01:20:48.016Z,58.45
2019-01-23T01:21:34.034Z,65.25
2019-01-23T01:22:19.911Z,61.77
2019-01-23T01:23:05.882Z,60.20
2019-01-23T01:23:52.297Z,62.75
2019-01-23T01:24:38.718Z,60.38
2019-01-23T01:25:25.159Z,60.43
2019-01-23T01:26:11.730Z,63.48
2019-01-23T01:26:57.685Z,66.42
2019-01-23T01:27:43.937Z,64.92
2019-01-23T01:28:30.297Z,69.47
2019-01-23T01:29:16.631Z,69.25
2019-01-23T01:30:04.030Z,64.27
2019-01-23T01:30:50.007Z,67.27
2019-01-23T01:31:35.988Z,65.52
2019-01-23T01:32:22.372Z,69.27
2019-01-23T01:33:08.398Z,72.32
2019-01-23T01:33:54.780Z,74.35
2019-01-23T01:34:41.036Z,73.22
2019-01-23T01:35:27.304Z,66.72
2019-01-23T01:36:13.856Z,71.28
2019-01-23T01:37:00.363Z,72.27
2019-01-23T01:37:46.956Z,63.78
2019-01-23T01:38:32.927Z,66.15
2019-01-23T01:39:18.943Z,62.48
2019-01-23T01:40:06.519Z,67.32
2019-01-23T01:40:52.771Z,65.25
2019-01-23T01:41:38.661Z,66.65
2019-01-23T01:42:24.535Z,67.17
2019-01-23T01:43:10.550Z,66.28
2019-01-23T01:43:56.931Z,68.52
2019-01-23T01:44:43.330Z,68.85
2019-01-23T01:45:29.187Z,69.87
2019-01-23T01:46:15.160Z,69.70
2019-01-23T01:47:01.137Z,74.10
2019-01-23T01:47:47.575Z,66.30
2019-01-23T01:48:34.167Z,68.75
2019-01-23T01:49:20.575Z,70.60
2019-01-23T01:50:09.567Z,70.90
2019-01-23T01:50:55.443Z,69.20
2019-01-23T01:51:42.615Z,67.37
2019-01-23T01:52:29.023Z,64.40
2019-01-23T01:53:15.968Z,64.92
2019-01-23T01:54:03.248Z,60.98
2019-01-23T01:54:49.687Z,63.38
2019-01-23T01:55:36.075Z,62.25
2019-01-23T01:56:22.711Z,62.10
2019-01-23T01:57:08.950Z,61.55
2019-01-23T01:57:58.606Z,57.65
2019-01-23T01:58:44.826Z,57.13
2019-01-23T01:59:31.017Z,58.83
2019-01-23T02:00:19.097Z,59.70
2019-01-23T02:01:05.134Z,61.40
2019-01-23T02:01:51.549Z,63.25
2019-01-23T02:02:37.578Z,57.95
2019-01-23T02:03:24.085Z,58.42
2019-01-23T02:04:10.032Z,61.00
2019-01-23T02:04:55.914Z,60.08
2019-01-23T02:05:45.212Z,61.20
2019-01-23T02:06:31.427Z,58.75
2019-01-23T02:07:17.438Z,59.50
2019-01-23T02:08:03.852Z,53.35
2019-01-23T02:08:50.319Z,54.20
2019-01-23T02:09:36.336Z,56.58
2019-01-23T02:10:24.051Z,56.35
2019-01-23T02:11:10.266Z,54.50
2019-01-23T02:11:56.203Z,47.05
2019-01-23T02:12:42.416Z,50.25
2019-01-23T02:13:28.903Z,54.88
2019-01-23T02:14:15.095Z,51.45
2019-01-23T02:15:01.430Z,57.10
2019-01-23T02:15:47.606Z,50.38
2019-01-23T02:16:34.796Z,54.25
2019-01-23T02:17:21.318Z,51.33
2019-01-23T02:18:07.771Z,51.28
2019-01-23T02:18:53.923Z,52.58
2019-01-23T02:19:40.201Z,53.08
2019-01-23T02:20:27.377Z,50.50
2019-01-23T02:21:13.341Z,50.25
2019-01-23T02:21:59.233Z,50.40
2019-01-23T02:22:45.683Z,49.03
2019-01-23T02:23:32.038Z,48.83
2019-01-23T02:24:18.092Z,52.98
2019-01-23T02:25:05.069Z,47.58
2019-01-23T02:25:51.362Z,47.88
2019-01-23T02:26:37.362Z,48.55
2019-01-23T02:27:24.452Z,47.35
2019-01-23T02:28:10.850Z,48.65
2019-01-23T02:28:57.080Z,51.50
2019-01-23T02:29:43.022Z,48.10
2019-01-23T02:30:29.044Z,46.08
2019-01-23T02:31:15.515Z,48.38
2019-01-23T02:32:01.771Z,49.48
2019-01-23T02:32:48.177Z,45.35
2019-01-23T02:33:34.067Z,46.25
2019-01-23T02:34:20.161Z,44.48
2019-01-23T02:35:07.207Z,49.03
2019-01-23T02:35:53.185Z,47.60
2019-01-23T02:36:39.737Z,46.58
2019-01-23T02:37:25.797Z,47.50
2019-01-23T02:38:12.512Z,44.93
2019-01-23T02:38:58.808Z,45.25
2019-01-23T02:39:45.532Z,45.17
2019-01-23T02:40:32.035Z,46.23
2019-01-23T02:41:18.061Z,44.53
2019-01-23T02:42:04.880Z,48.28
2019-01-23T02:42:51.532Z,43.40
2019-01-23T02:43:37.840Z,46.88
2019-01-23T02:44:23.874Z,47.75
2019-01-23T02:45:10.870Z,45.73
2019-01-23T02:45:56.850Z,44.88
2019-01-23T02:46:43.171Z,45.30
2019-01-23T02:47:29.709Z,51.20
2019-01-23T02:48:15.735Z,47.50
2019-01-23T02:49:01.999Z,46.50
2019-01-23T02:49:47.954Z,42.35
2019-01-23T02:50:34.419Z,44.98
2019-01-23T02:51:20.392Z,47.00
2019-01-23T02:52:06.284Z,46.83
2019-01-23T02:52:52.736Z,47.50
2019-01-23T02:53:39.215Z,46.18
2019-01-23T02:54:26.395Z,45.05
2019-01-23T02:55:12.810Z,47.25
2019-01-23T02:55:58.942Z,42.75
2019-01-23T02:56:44.927Z,41.50
2019-01-23T02:57:30.920Z,45.05
2019-01-23T02:58:16.880Z,43.23
2019-01-23T02:59:03.422Z,40.60
2019-01-23T02:59:49.670Z,41.45
2019-01-23T03:00:36.298Z,44.05
2019-01-23T03:01:22.502Z,44.30
2019-01-23T03:02:09.078Z,42.17
2019-01-23T03:02:55.117Z,42.67
2019-01-23T03:03:41.175Z,40.60
2019-01-23T03:04:27.002Z,43.55
2019-01-23T03:05:15.932Z,41.55
2019-01-23T03:06:01.815Z,41.60
2019-01-23T03:06:47.618Z,47.05
2019-01-23T03:07:34.679Z,44.05
2019-01-23T03:08:20.759Z,42.48
2019-01-23T03:09:08.785Z,42.60
2019-01-23T03:09:55.009Z,40.10
2019-01-23T03:10:41.503Z,42.88
2019-01-23T03:11:27.589Z,42.73
2019-01-23T03:12:13.468Z,42.58
2019-01-23T03:12:59.930Z,40.23
2019-01-23T03:13:45.741Z,45.48
2019-01-23T03:14:31.547Z,44.15
2019-01-23T03:15:18.137Z,41.83
2019-01-23T03:16:04.344Z,38.83
2019-01-23T03:16:50.307Z,43.25
2019-01-23T03:17:36.566Z,39.98
2019-01-23T03:18:22.482Z,40.60
2019-01-23T03:19:09.071Z,44.05
2019-01-23T03:19:55.175Z,44.10
2019-01-23T03:20:41.222Z,41.95
2019-01-23T03:21:27.683Z,41.55
2019-01-23T03:22:13.799Z,40.00
2019-01-23T03:23:00.353Z,38.28
2019-01-23T03:23:46.746Z,39.98
2019-01-23T03:24:32.906Z,39.42
2019-01-23T03:25:21.507Z,40.33
2019-01-23T03:26:07.781Z,38.67
2019-01-23T03:26:54.383Z,40.17
2019-01-23T03:27:40.567Z,37.98
2019-01-23T03:28:26.859Z,40.12
2019-01-23T03:29:13.453Z,40.15
2019-01-23T03:29:59.543Z,40.17
2019-01-23T03:30:46.044Z,41.33
2019-01-23T03:31:32.501Z,37.33
2019-01-23T03:32:18.918Z,40.38
2019-01-23T03:33:04.827Z,42.30
2019-01-23T03:33:51.480Z,42.10
2019-01-23T03:34:37.676Z,38.83
2019-01-23T03:35:24.075Z,44.30
2019-01-23T03:36:11.714Z,36.83
2019-01-23T03:36:57.688Z,41.10
2019-01-23T03:37:43.671Z,40.08
2019-01-23T03:38:30.097Z,42.78
2019-01-23T03:39:16.048Z,40.75
2019-01-23T03:40:02.234Z,40.20
2019-01-23T03:40:48.539Z,40.03
2019-01-23T03:41:34.803Z,41.68
2019-01-23T03:42:20.855Z,40.80
2019-01-23T03:43:07.299Z,39.42
2019-01-23T03:43:53.218Z,40.52
2019-01-23T03:44:39.620Z,41.50
2019-01-23T03:45:25.708Z,41.42
2019-01-23T03:46:11.634Z,39.08
2019-01-23T03:46:57.701Z,38.60
2019-01-23T03:47:44.206Z,39.50
2019-01-23T03:48:30.543Z,38.78
2019-01-23T03:49:17.395Z,40.60
2019-01-23T03:50:05.352Z,38.65
2019-01-23T03:50:52.043Z,39.55
2019-01-23T03:51:38.576Z,39.15
2019-01-23T03:52:26.370Z,40.90
2019-01-23T03:53:12.908Z,40.67
2019-01-23T03:54:00.687Z,38.05
2019-01-23T03:54:47.071Z,37.80
2019-01-23T03:55:33.070Z,38.67
2019-01-23T03:56:20.398Z,37.83
2019-01-23T03:57:06.814Z,38.67
2019-01-23T03:57:52.891Z,37.13
2019-01-23T03:58:39.564Z,40.08
2019-01-23T03:59:32.030Z,38.75
2019-01-23T04:00:15.719Z,38.13
2019-01-23T04:01:01.674Z,38.92
2019-01-23T04:01:47.830Z,40.17
2019-01-23T04:02:34.005Z,40.20
2019-01-23T04:03:20.596Z,39.92
2019-01-23T04:04:06.695Z,38.60
2019-01-23T04:04:52.631Z,38.23
2019-01-23T04:05:38.515Z,39.83
2019-01-23T04:06:24.479Z,40.00
2019-01-23T04:07:10.865Z,40.63
2019-01-23T04:07:56.859Z,41.15
2019-01-23T04:08:42.873Z,39.73
2019-01-23T04:09:29.277Z,41.68
2019-01-23T04:10:15.479Z,38.45
2019-01-23T04:11:01.409Z,38.50
2019-01-23T04:11:47.279Z,41.05
2019-01-23T04:12:33.706Z,38.33
2019-01-23T04:13:19.714Z,38.90
2019-01-23T04:14:05.983Z,40.25
2019-01-23T04:14:52.394Z,36.68
2019-01-23T04:15:38.383Z,38.05
2019-01-23T04:16:24.314Z,38.63
2019-01-23T04:17:10.465Z,36.85
2019-01-23T04:17:56.938Z,39.88
2019-01-23T04:18:43.096Z,39.85
2019-01-23T04:19:29.764Z,36.50
2019-01-23T04:20:17.950Z,41.58
2019-01-23T04:21:04.254Z,39.03
2019-01-23T04:21:50.989Z,40.35
2019-01-23T04:22:38.761Z,41.05
2019-01-23T04:23:25.307Z,40.83
2019-01-23T04:24:11.318Z,38.78
2019-01-23T04:24:57.476Z,40.00
2019-01-23T04:25:47.515Z,40.67
2019-01-23T04:26:33.472Z,43.52
2019-01-23T04:27:19.448Z,42.48
2019-01-23T04:28:05.632Z,40.67
2019-01-23T04:28:51.843Z,41.13
2019-01-23T04:29:39.753Z,38.75
2019-01-23T04:30:26.177Z,41.65
2019-01-23T04:31:15.851Z,40.08
2019-01-23T04:32:01.776Z,36.88
2019-01-23T04:32:48.277Z,39.80
2019-01-23T04:33:34.340Z,38.92
2019-01-23T04:34:20.323Z,42.15
2019-01-23T04:35:06.596Z,42.50
2019-01-23T04:35:53.006Z,38.25
2019-01-23T04:36:38.985Z,37.48
2019-01-23T04:37:24.939Z,39.78
2019-01-23T04:38:10.837Z,42.95
2019-01-23T04:38:56.768Z,41.05
2019-01-23T04:39:43.172Z,42.70
2019-01-23T04:40:29.219Z,41.73
2019-01-23T04:41:15.566Z,39.23
2019-01-23T04:42:01.599Z,41.08
2019-01-23T04:42:47.957Z,41.92
2019-01-23T04:43:33.941Z,39.50
2019-01-23T04:44:19.785Z,37.60
2019-01-23T04:45:07.961Z,36.48
2019-01-23T04:45:54.176Z,40.58
2019-01-23T04:46:40.603Z,39.65
2019-01-23T04:47:26.477Z,41.98
2019-01-23T04:48:12.455Z,37.90
2019-01-23T04:48:58.462Z,38.42
2019-01-23T04:49:44.965Z,37.65
2019-01-23T04:50:33.230Z,38.58
2019-01-23T04:51:39.103Z,41.83
2019-01-23T04:52:53.128Z,41.37
2019-01-23T04:53:41.530Z,40.78
2019-01-23T04:54:27.861Z,38.63
2019-01-23T04:55:14.304Z,42.38
2019-01-23T04:56:00.708Z,40.05
2019-01-23T04:56:47.471Z,40.05
2019-01-23T04:57:33.766Z,41.08
2019-01-23T04:58:20.208Z,36.30
2019-01-23T04:59:06.641Z,39.38
2019-01-23T04:59:52.808Z,40.70
2019-01-23T05:00:39.360Z,40.95
2019-01-23T05:01:25.511Z,39.58
2019-01-23T05:02:11.619Z,36.28
2019-01-23T05:02:57.741Z,42.85
2019-01-23T05:03:43.910Z,40.45
2019-01-23T05:04:29.857Z,39.85
2019-01-23T05:05:16.124Z,41.02
2019-01-23T05:06:02.420Z,38.33
2019-01-23T05:06:49.468Z,42.58
2019-01-23T05:07:35.530Z,39.55
2019-01-23T05:08:21.450Z,40.78
2019-01-23T05:09:08.174Z,38.50
2019-01-23T05:09:54.271Z,39.75
2019-01-23T05:10:40.199Z,39.75
2019-01-23T05:11:26.151Z,36.93
2019-01-23T05:12:12.363Z,36.88
2019-01-23T05:12:58.351Z,39.90
2019-01-23T05:13:44.345Z,40.03
2019-01-23T05:14:30.394Z,41.63
2019-01-23T05:15:16.338Z,39.75
2019-01-23T05:16:02.416Z,40.23
2019-01-23T05:16:48.525Z,41.18
2019-01-23T05:17:35.090Z,39.05
2019-01-23T05:18:22.715Z,38.53
2019-01-23T05:19:09.116Z,39.98
2019-01-23T05:19:55.615Z,45.00
2019-01-23T05:20:42.355Z,39.20
2019-01-23T05:21:28.855Z,40.43
2019-01-23T05:22:16.441Z,41.70
2019-01-23T05:23:02.554Z,59.10
2019-01-23T05:23:49.619Z,47.40
2019-01-23T05:24:38.436Z,69.92
2019-01-23T05:25:25.379Z,44.77
2019-01-23T05:26:11.901Z,40.23
2019-01-23T05:26:59.991Z,48.55
2019-01-23T05:27:46.370Z,41.88
2019-01-23T05:28:34.006Z,39.35
2019-01-23T05:29:21.115Z,41.45
2019-01-23T05:30:12.306Z,38.60
2019-01-23T05:30:58.766Z,44.60
2019-01-23T05:31:45.976Z,42.93
2019-01-23T05:32:33.703Z,40.52
2019-01-23T05:33:19.773Z,41.42
2019-01-23T05:34:05.855Z,41.53
2019-01-23T05:37:43.250Z,38.17
2019-01-23T05:38:35.939Z,37.15
2019-01-23T05:39:28.726Z,41.13
2019-01-23T05:40:16.062Z,42.38
2019-01-23T05:41:02.192Z,39.88
2019-01-23T05:41:48.675Z,40.58
2019-01-23T05:42:35.787Z,41.25
2019-01-23T05:43:22.196Z,41.33
2019-01-23T05:44:08.830Z,40.10
2019-01-23T05:44:54.996Z,42.38
2019-01-23T05:45:41.091Z,42.60
2019-01-23T05:46:27.649Z,39.08
2019-01-23T05:47:14.190Z,40.73
2019-01-23T05:48:00.898Z,38.33
2019-01-23T05:48:47.208Z,41.75
2019-01-23T05:49:33.732Z,41.40
2019-01-23T05:50:20.176Z,45.60
2019-01-23T05:51:06.007Z,44.45
2019-01-23T05:51:51.793Z,43.15
2019-01-23T05:52:38.883Z,39.63
2019-01-23T05:53:26.286Z,42.10
2019-01-23T05:54:12.671Z,44.77
2019-01-23T05:54:58.878Z,38.45
2019-01-23T05:55:44.786Z,40.65
2019-01-23T05:56:32.253Z,40.70
2019-01-23T05:57:18.514Z,40.43
2019-01-23T05:58:04.472Z,39.83
2019-01-23T05:58:50.588Z,40.28
2019-01-23T05:59:36.828Z,39.63
2019-01-23T06:00:22.966Z,42.27
2019-01-23T06:01:09.096Z,47.70
2019-01-23T06:01:55.076Z,44.10
2019-01-23T06:02:41.367Z,43.83
2019-01-23T06:03:27.354Z,46.00
2019-01-23T06:04:13.813Z,43.90
2019-01-23T06:04:59.772Z,45.80
2019-01-23T06:05:45.770Z,44.53
2019-01-23T06:06:31.811Z,43.05
2019-01-23T06:07:18.051Z,43.30
2019-01-23T06:08:04.829Z,42.90
2019-01-23T06:08:51.202Z,46.55
2019-01-23T06:09:39.350Z,46.88
2019-01-23T06:10:25.871Z,42.43
2019-01-23T06:11:12.293Z,40.43
2019-01-23T06:11:58.366Z,42.58
2019-01-23T06:12:44.387Z,42.20
2019-01-23T06:13:31.047Z,43.95
2019-01-23T06:14:18.740Z,43.85
2019-01-23T06:15:06.494Z,46.02
2019-01-23T06:15:52.946Z,41.73
2019-01-23T06:16:39.074Z,41.50
2019-01-23T06:17:25.530Z,42.25
2019-01-23T06:18:11.354Z,42.40
2019-01-23T06:18:57.126Z,43.23
2019-01-23T06:19:43.056Z,44.23
2019-01-23T06:20:29.322Z,44.83
2019-01-23T06:21:15.304Z,44.15
2019-01-23T06:22:01.591Z,43.87
2019-01-23T06:22:48.062Z,41.77
2019-01-23T06:23:34.239Z,42.78
2019-01-23T06:24:20.179Z,45.52
2019-01-23T06:25:06.773Z,41.75
2019-01-23T06:25:52.856Z,44.55
2019-01-23T06:26:39.260Z,42.65
2019-01-23T06:27:25.259Z,44.33
2019-01-23T06:28:11.224Z,40.98
2019-01-23T06:28:58.759Z,44.25
2019-01-23T06:29:45.024Z,44.48
2019-01-23T06:30:32.624Z,41.10
2019-01-23T06:31:18.775Z,47.80
2019-01-23T06:32:04.750Z,44.35
2019-01-23T06:32:58.443Z,45.75
2019-01-23T06:33:45.424Z,43.75
2019-01-23T06:34:32.942Z,43.50
2019-01-23T06:35:20.200Z,44.95
2019-01-23T06:36:06.662Z,43.73
2019-01-23T06:36:52.947Z,44.77
2019-01-23T06:37:39.093Z,45.23
2019-01-23T06:38:25.350Z,41.42
2019-01-23T06:39:11.295Z,42.58
2019-01-23T06:39:57.176Z,42.65
2019-01-23T06:40:44.342Z,42.38
2019-01-23T06:41:30.634Z,44.98
2019-01-23T06:42:16.880Z,43.00
2019-01-23T06:43:02.736Z,42.05
2019-01-23T06:43:48.671Z,40.55
2019-01-23T06:44:34.651Z,43.55
2019-01-23T06:45:20.605Z,45.92
2019-01-23T06:46:07.679Z,43.15
2019-01-23T06:46:54.139Z,44.08
2019-01-23T06:47:40.328Z,48.95
2019-01-23T06:48:26.912Z,48.20
2019-01-23T06:49:12.999Z,46.48
2019-01-23T06:49:59.660Z,40.67
2019-01-23T06:50:46.239Z,46.00
2019-01-23T06:51:32.234Z,48.25
2019-01-23T06:52:19.154Z,45.95
2019-01-23T06:53:05.712Z,45.12
2019-01-23T06:53:53.095Z,46.10
2019-01-23T06:54:40.795Z,45.15
2019-01-23T06:55:27.204Z,46.48
2019-01-23T06:56:13.797Z,46.20
2019-01-23T06:57:00.096Z,49.85
2019-01-23T06:57:45.981Z,44.55
2019-01-23T06:58:31.981Z,45.65
2019-01-23T06:59:18.329Z,45.45
2019-01-23T07:00:06.612Z,49.30
2019-01-23T07:00:53.529Z,48.35
2019-01-23T07:01:39.823Z,46.30
2019-01-23T07:02:25.731Z,46.08
2019-01-23T07:03:12.027Z,48.78
2019-01-23T07:03:58.311Z,47.50
2019-01-23T07:04:45.393Z,46.00
2019-01-23T07:05:31.849Z,49.65
2019-01-23T07:06:18.046Z,46.18
2019-01-23T07:07:04.003Z,45.92
2019-01-23T07:07:49.970Z,45.78
2019-01-23T07:08:37.402Z,45.35
2019-01-23T07:09:26.901Z,50.48
2019-01-23T07:10:16.695Z,45.40
2019-01-23T07:11:03.058Z,49.58
2019-01-23T07:11:49.269Z,47.10
2019-01-23T07:12:36.210Z,49.05
2019-01-23T07:13:22.388Z,47.15
2019-01-23T07:14:08.303Z,47.33
2019-01-23T07:14:54.167Z,45.52
2019-01-23T07:15:40.146Z,47.30
2019-01-23T07:16:26.443Z,45.55
2019-01-23T07:17:12.436Z,46.10
2019-01-23T07:17:58.372Z,48.83
2019-01-23T07:18:45.917Z,47.33
2019-01-23T07:19:32.287Z,44.85
2019-01-23T07:20:23.958Z,52.75
2019-01-23T07:21:11.087Z,49.05
2019-01-23T07:21:57.331Z,48.65
2019-01-23T07:22:43.323Z,49.30
2019-01-23T07:23:29.687Z,48.40
2019-01-23T07:24:15.906Z,52.03
2019-01-23T07:25:02.454Z,48.25
2019-01-23T07:25:48.638Z,48.05
2019-01-23T07:26:34.667Z,47.60
2019-01-23T07:27:22.179Z,47.62
2019-01-23T07:28:08.575Z,48.02
2019-01-23T07:28:56.238Z,49.45
2019-01-23T07:29:42.321Z,49.50
2019-01-23T07:30:31.099Z,54.65
2019-01-23T07:31:17.268Z,46.05
2019-01-23T07:32:03.756Z,51.85
2019-01-23T07:32:50.422Z,49.45
2019-01-23T07:33:38.045Z,50.52
2019-01-23T07:34:25.386Z,48.08
2019-01-23T07:35:11.666Z,51.37
2019-01-23T07:35:57.940Z,51.73
2019-01-23T07:36:43.820Z,45.90
2019-01-23T07:37:29.683Z,51.63
2019-01-23T07:38:16.111Z,47.80
2019-01-23T07:39:03.948Z,50.48
2019-01-23T07:39:51.209Z,52.15
2019-01-23T07:40:37.331Z,48.75
2019-01-23T07:41:23.128Z,45.85
2019-01-23T07:42:09.092Z,51.48
2019-01-23T07:42:54.942Z,48.52
2019-01-23T07:43:40.939Z,49.23
2019-01-23T07:44:27.667Z,50.65
2019-01-23T07:45:15.196Z,49.27
2019-01-23T07:46:01.404Z,49.10
2019-01-23T07:46:47.590Z,49.33
2019-01-23T07:47:33.775Z,49.90
2019-01-23T07:48:20.470Z,50.33
2019-01-23T07:49:06.813Z,52.25
2019-01-23T07:49:53.291Z,48.90
2019-01-23T07:50:40.065Z,45.73
2019-01-23T07:51:26.278Z,50.38
2019-01-23T07:52:12.292Z,52.08
2019-01-23T07:52:58.594Z,49.13
2019-01-23T07:53:44.438Z,48.17
2019-01-23T07:54:30.472Z,49.63
2019-01-23T07:55:17.291Z,47.40
2019-01-23T07:56:03.121Z,49.05
2019-01-23T07:56:49.584Z,49.45
2019-01-23T07:57:36.977Z,46.48
2019-01-23T07:58:23.314Z,50.88
2019-01-23T07:59:09.962Z,48.17
2019-01-23T07:59:57.291Z,50.05
2019-01-23T08:00:43.610Z,52.38
2019-01-23T08:01:29.956Z,49.55
2019-01-23T08:02:16.318Z,51.42
2019-01-23T08:03:03.329Z,51.45
2019-01-23T08:03:50.724Z,48.75
2019-01-23T08:04:36.887Z,49.53
2019-01-23T08:05:25.329Z,49.25
2019-01-23T08:06:11.780Z,54.63
2019-01-23T08:06:59.714Z,47.53
2019-01-23T08:07:47.208Z,50.70
2019-01-23T08:08:33.446Z,50.78
2019-01-23T08:09:19.842Z,51.25
2019-01-23T08:10:08.731Z,46.20
2019-01-23T08:10:54.542Z,48.60
2019-01-23T08:11:40.499Z,52.58
2019-01-23T08:12:26.381Z,57.27
2019-01-23T08:13:12.277Z,52.30
2019-01-23T08:13:58.721Z,50.90
2019-01-23T08:14:45.087Z,53.10
2019-01-23T08:15:33.316Z,50.33
2019-01-23T08:16:19.395Z,48.75
2019-01-23T08:17:05.279Z,50.70
2019-01-23T08:17:51.184Z,52.10
2019-01-23T08:18:37.395Z,52.15
2019-01-23T08:19:23.827Z,56.02
2019-01-23T08:20:12.311Z,50.83
2019-01-23T08:20:58.800Z,51.65
2019-01-23T08:21:45.140Z,51.28
2019-01-23T08:22:31.016Z,52.15
2019-01-23T08:23:16.879Z,50.75
2019-01-23T08:24:02.900Z,50.20
2019-01-23T08:24:48.867Z,51.53
2019-01-23T08:25:34.825Z,47.30
2019-01-23T08:26:21.465Z,49.65
2019-01-23T08:27:07.736Z,46.95
2019-01-23T08:27:55.950Z,51.60
2019-01-23T08:28:42.331Z,51.28
2019-01-23T08:29:28.509Z,49.53
2019-01-23T08:30:16.819Z,46.23
2019-01-23T08:31:03.041Z,47.62
2019-01-23T08:31:50.295Z,48.95
2019-01-23T08:32:36.795Z,50.33
2019-01-23T08:33:23.402Z,47.10
2019-01-23T08:34:11.029Z,52.73
2019-01-23T08:34:57.727Z,48.17
2019-01-23T08:35:44.038Z,45.20
2019-01-23T08:36:31.154Z,47.67
2019-01-23T08:37:17.608Z,47.50
2019-01-23T08:38:04.272Z,53.73
2019-01-23T08:38:50.595Z,49.13
2019-01-23T08:39:36.735Z,48.78
2019-01-23T08:40:22.924Z,45.45
2019-01-23T08:41:09.112Z,50.30
2019-01-23T08:41:56.114Z,51.75
2019-01-23T08:42:42.419Z,49.67
2019-01-23T08:43:28.706Z,48.02
2019-01-23T08:44:14.885Z,47.80
2019-01-23T08:45:01.423Z,54.60
2019-01-23T08:45:47.252Z,49.23
2019-01-23T08:46:34.598Z,48.40
2019-01-23T08:47:20.890Z,52.62
2019-01-23T08:48:07.384Z,46.20
2019-01-23T08:48:54.398Z,45.00
2019-01-23T08:49:40.829Z,48.33
2019-01-23T08:50:30.577Z,44.60
2019-01-23T08:51:16.434Z,47.23
2019-01-23T08:52:02.935Z,51.30
2019-01-23T08:52:49.417Z,46.77
2019-01-23T08:53:36.947Z,44.05
2019-01-23T08:54:36.712Z,48.42
2019-01-23T08:55:22.999Z,43.78
2019-01-23T08:56:09.259Z,46.10
2019-01-23T08:56:55.795Z,47.13
2019-01-23T08:57:41.875Z,53.13
2019-01-23T08:58:28.331Z,52.27
2019-01-23T08:59:14.816Z,49.45
2019-01-23T09:00:01.106Z,45.43
2019-01-23T09:00:47.550Z,48.58
2019-01-23T09:01:34.544Z,46.05
2019-01-23T09:02:21.035Z,47.33
2019-01-23T09:03:07.256Z,49.38
2019-01-23T09:03:53.249Z,47.33
2019-01-23T09:04:39.203Z,47.65
2019-01-23T09:05:26.206Z,47.08
2019-01-23T09:06:12.365Z,46.10
2019-01-23T09:06:58.308Z,43.25
2019-01-23T09:07:44.194Z,47.23
2019-01-23T09:08:30.192Z,47.27
2019-01-23T09:09:16.134Z,48.05
2019-01-23T09:10:02.335Z,48.90
2019-01-23T09:10:48.811Z,48.92
2019-01-23T09:11:34.908Z,48.17
2019-01-23T09:12:21.003Z,52.65
2019-01-23T09:13:07.535Z,48.28
2019-01-23T09:13:54.138Z,48.35
2019-01-23T09:14:40.979Z,47.17
2019-01-23T09:15:27.406Z,44.90
2019-01-23T09:16:14.022Z,48.83
2019-01-23T09:17:01.606Z,44.33
2019-01-23T09:17:48.085Z,45.73
2019-01-23T09:18:34.246Z,46.33
2019-01-23T09:19:20.638Z,53.20
2019-01-23T09:20:08.072Z,47.95
2019-01-23T09:20:54.205Z,47.10
2019-01-23T09:21:40.757Z,46.70
2019-01-23T09:22:28.331Z,49.40
2019-01-23T09:23:14.882Z,48.48
2019-01-23T09:24:01.102Z,48.23
2019-01-23T09:24:48.511Z,47.15
2019-01-23T09:25:34.921Z,45.98
2019-01-23T09:26:21.342Z,48.65
2019-01-23T09:27:07.584Z,47.93
2019-01-23T09:27:53.847Z,46.65
2019-01-23T09:28:40.307Z,48.75
2019-01-23T09:29:26.399Z,45.12
2019-01-23T09:30:27.690Z,44.98
2019-01-23T09:31:58.715Z,46.85
2019-01-23T09:33:25.939Z,44.83
2019-01-23T09:34:27.163Z,46.35
2019-01-23T09:36:16.534Z,44.73
2019-01-23T09:37:51.081Z,46.30
2019-01-23T09:39:18.424Z,44.85
2019-01-23T09:40:45.878Z,45.03
2019-01-23T09:42:28.187Z,43.38
2019-01-23T09:44:07.747Z,43.02
2019-01-23T09:45:28.905Z,43.95
2019-01-23T09:46:24.627Z,43.58
2019-01-23T09:47:31.279Z,45.50
2019-01-23T09:48:24.055Z,46.48
2019-01-23T09:49:51.421Z,45.95
2019-01-23T09:51:24.041Z,45.98
2019-01-23T09:52:56.555Z,48.23
2019-01-23T09:53:51.579Z,44.08
2019-01-23T09:54:37.546Z,52.88
2019-01-23T09:55:23.491Z,44.33
2019-01-23T09:56:11.871Z,47.50
2019-01-23T09:56:57.832Z,45.35
2019-01-23T09:57:47.699Z,47.58
2019-01-23T09:58:33.686Z,45.78
2019-01-23T09:59:19.851Z,43.85
2019-01-23T10:00:09.596Z,42.40
2019-01-23T10:00:59.850Z,41.92
2019-01-23T10:01:44.002Z,41.30
2019-01-23T10:02:30.403Z,43.55
2019-01-23T10:03:22.802Z,45.78
2019-01-23T10:04:04.373Z,47.13
2019-01-23T10:04:50.556Z,45.90
2019-01-23T10:05:37.726Z,46.42
2019-01-23T10:06:23.861Z,46.33
2019-01-23T10:07:09.942Z,43.73
2019-01-23T10:07:57.367Z,44.90
2019-01-23T10:08:44.590Z,46.77
2019-01-23T10:09:30.673Z,42.88
2019-01-23T10:10:18.707Z,44.93
2019-01-23T10:11:07.038Z,44.27
2019-01-23T10:11:53.379Z,43.78
2019-01-23T10:12:40.408Z,43.55
2019-01-23T10:13:26.731Z,44.35
2019-01-23T10:14:14.265Z,43.78